createdAt,value
2019-05-03T00:00:19.610Z,95.69
2019-05-03T00:02:55.779Z,96.25
2019-05-03T00:05:26.002Z,95.93
2019-05-03T00:07:55.321Z,95.95
2019-05-03T00:10:23.964Z,95.04
2019-05-03T00:12:52.853Z,95.22
2019-05-03T00:15:23.040Z,96.41
2019-05-03T00:17:52.658Z,95.86
2019-05-03T00:20:21.936Z,95.68
2019-05-03T00:22:52.335Z,95.89
2019-05-03T00:25:22.099Z,96.16
2019-05-03T00:27:52.650Z,94.50
2019-05-03T00:30:22.543Z,94.09
2019-05-03T00:32:52.137Z,94.81
2019-05-03T00:35:22.628Z,95.49
2019-05-03T00:37:52.797Z,96.81
2019-05-03T00:40:30.027Z,96.04
2019-05-03T00:42:58.870Z,95.37
2019-05-03T00:45:27.406Z,95.05
2019-05-03T00:47:55.902Z,94.03
2019-05-03T00:50:24.376Z,95.01
2019-05-03T00:52:53.244Z,94.88
2019-05-03T00:55:22.130Z,94.65
2019-05-03T00:57:52.148Z,95.95
2019-05-03T01:00:21.765Z,96.91
2019-05-03T01:02:51.692Z,96.85
2019-05-03T01:05:22.526Z,97.35
2019-05-03T01:07:52.404Z,98.07
2019-05-03T01:10:22.603Z,96.34
2019-05-03T01:12:52.394Z,95.08
2019-05-03T01:15:22.699Z,94.23
2019-05-03T01:17:52.526Z,93.15
2019-05-03T01:20:22.534Z,92.88
2019-05-03T01:22:51.886Z,92.62
2019-05-03T01:25:30.100Z,92.36
2019-05-03T01:27:52.197Z,91.86
2019-05-03T01:30:22.626Z,90.77
2019-05-03T01:32:52.349Z,90.78
2019-05-03T01:35:21.946Z,90.21
2019-05-03T01:37:51.796Z,90.30
2019-05-03T01:40:22.009Z,90.28
2019-05-03T01:42:51.827Z,90.00
2019-05-03T01:45:20.435Z,89.41
2019-05-03T01:47:57.067Z,90.05
2019-05-03T01:50:43.580Z,90.08
2019-05-03T01:53:13.731Z,90.32
2019-05-03T01:55:53.748Z,89.81
2019-05-03T01:58:23.394Z,90.23
2019-05-03T02:00:54.363Z,90.62
2019-05-03T02:03:27.211Z,90.09
2019-05-03T02:05:56.067Z,90.17
2019-05-03T02:08:24.561Z,90.55
2019-05-03T02:10:53.038Z,90.14
2019-05-03T02:13:22.935Z,90.04
2019-05-03T02:15:52.742Z,89.81
2019-05-03T02:18:22.324Z,89.66
2019-05-03T02:20:52.545Z,90.12
2019-05-03T02:23:22.444Z,89.68
2019-05-03T02:25:58.407Z,89.73
2019-05-03T02:28:22.056Z,90.22
2019-05-03T02:30:53.252Z,89.82
2019-05-03T02:33:23.201Z,89.92
2019-05-03T02:35:53.322Z,89.75
2019-05-03T02:38:23.329Z,90.20
2019-05-03T02:40:53.239Z,89.82
2019-05-03T02:43:39.450Z,89.66
2019-05-03T02:46:16.741Z,89.09
2019-05-03T02:48:56.203Z,89.53
2019-05-03T02:51:26.106Z,89.28
2019-05-03T02:53:57.116Z,90.21
2019-05-03T02:56:26.138Z,91.21
2019-05-03T02:58:55.741Z,91.36
2019-05-03T03:01:26.563Z,90.10
2019-05-03T03:03:56.260Z,90.61
2019-05-03T03:06:27.117Z,90.90
2019-05-03T03:08:58.576Z,91.47
2019-05-03T03:11:29.543Z,90.86
2019-05-03T03:14:00.027Z,92.14
2019-05-03T03:16:30.661Z,93.67
2019-05-03T03:19:02.211Z,94.68
2019-05-03T03:21:36.010Z,94.73
2019-05-03T03:24:16.834Z,94.15
2019-05-03T03:26:47.795Z,93.84
2019-05-03T03:29:18.184Z,93.19
2019-05-03T03:31:58.840Z,93.85
2019-05-03T03:34:38.594Z,93.38
2019-05-03T03:37:10.263Z,94.01
2019-05-03T03:39:39.195Z,93.06
2019-05-03T03:42:09.279Z,91.97
2019-05-03T03:44:37.920Z,90.62
2019-05-03T03:47:07.137Z,91.26
2019-05-03T03:49:38.150Z,90.63
2019-05-03T03:52:08.364Z,91.55
2019-05-03T03:54:39.670Z,91.95
2019-05-03T03:57:09.746Z,93.57
2019-05-03T03:59:38.215Z,93.12
2019-05-03T04:02:06.846Z,94.21
2019-05-03T04:04:35.989Z,96.54
2019-05-03T04:07:06.573Z,96.82
2019-05-03T04:09:36.408Z,97.43
2019-05-03T04:12:06.128Z,98.87
2019-05-03T04:14:39.481Z,99.02
2019-05-03T04:17:14.907Z,97.44
2019-05-03T04:19:45.452Z,96.48
2019-05-03T04:22:16.423Z,97.35
2019-05-03T04:24:45.919Z,96.84
2019-05-03T04:27:23.119Z,96.08
2019-05-03T04:29:46.022Z,97.53
2019-05-03T04:32:17.558Z,95.99
2019-05-03T04:34:46.027Z,96.41
2019-05-03T04:37:16.200Z,98.65
2019-05-03T04:39:45.602Z,97.01
2019-05-03T04:42:16.674Z,97.11
2019-05-03T04:44:45.569Z,99.13
2019-05-03T04:47:15.618Z,100.00
2019-05-03T04:49:46.349Z,99.63
2019-05-03T04:52:17.496Z,100.00
2019-05-03T04:54:47.608Z,100.00
2019-05-03T04:57:34.338Z,100.00
2019-05-03T04:59:46.293Z,100.00
2019-05-03T05:02:15.967Z,100.00
2019-05-03T05:04:46.361Z,100.00
2019-05-03T05:07:15.564Z,100.00
2019-05-03T05:09:45.667Z,100.00
2019-05-03T05:12:17.658Z,100.00
2019-05-03T05:14:46.127Z,100.00
2019-05-03T05:17:16.688Z,100.00
2019-05-03T05:19:46.848Z,100.00
2019-05-03T05:22:31.643Z,100.00
2019-05-03T05:25:01.750Z,100.00
2019-05-03T05:27:48.371Z,100.00
2019-05-03T05:30:08.019Z,100.00
2019-05-03T05:32:36.516Z,100.00
2019-05-03T05:35:06.726Z,100.00
2019-05-03T05:37:35.327Z,100.00
2019-05-03T05:40:05.310Z,100.00
2019-05-03T05:42:35.054Z,100.00
2019-05-03T05:45:05.009Z,100.00
2019-05-03T05:47:37.920Z,97.58
2019-05-03T05:50:08.593Z,99.62
2019-05-03T05:52:37.072Z,99.76
2019-05-03T05:55:17.931Z,99.50
2019-05-03T05:58:04.767Z,99.33
2019-05-03T06:00:31.916Z,98.28
2019-05-03T06:03:00.413Z,100.00
2019-05-03T06:05:28.911Z,97.39
2019-05-03T06:08:15.745Z,99.69
2019-05-03T06:10:48.559Z,98.40
2019-05-03T06:13:18.695Z,96.88
2019-05-03T06:15:48.804Z,98.35
2019-05-03T06:18:21.373Z,99.74
2019-05-03T06:21:00.523Z,100.00
2019-05-03T06:23:36.667Z,99.46
2019-05-03T06:26:06.852Z,99.53
2019-05-03T06:28:35.713Z,98.92
2019-05-03T06:31:22.808Z,100.00
2019-05-03T06:33:52.524Z,96.92
2019-05-03T06:36:21.192Z,96.49
2019-05-03T06:38:49.682Z,97.33
2019-05-03T06:41:18.149Z,98.93
2019-05-03T06:43:48.723Z,97.59
2019-05-03T06:46:18.337Z,99.15
2019-05-03T06:48:47.047Z,96.24
2019-05-03T06:51:19.899Z,93.59
2019-05-03T06:53:47.581Z,93.15
2019-05-03T06:56:19.346Z,93.63
2019-05-03T06:58:46.133Z,92.48
2019-05-03T07:01:27.969Z,93.58
2019-05-03T07:04:15.267Z,96.46
2019-05-03T07:06:45.533Z,94.33
2019-05-03T07:09:15.667Z,93.32
2019-05-03T07:11:45.143Z,88.35
2019-05-03T07:14:15.541Z,91.81
2019-05-03T07:16:44.402Z,91.20
2019-05-03T07:19:14.750Z,89.61
2019-05-03T07:21:44.649Z,87.91
2019-05-03T07:24:14.671Z,86.04
2019-05-03T07:26:44.826Z,85.59
2019-05-03T07:29:15.228Z,86.00
2019-05-03T07:31:44.672Z,88.70
2019-05-03T07:34:15.416Z,86.66
2019-05-03T07:36:44.641Z,85.94
2019-05-03T07:39:14.519Z,86.89
2019-05-03T07:41:44.666Z,86.96
2019-05-03T07:44:15.134Z,87.50
2019-05-03T07:46:45.191Z,87.72
2019-05-03T07:49:15.378Z,88.76
2019-05-03T07:51:44.872Z,87.10
2019-05-03T07:54:15.532Z,87.62
2019-05-03T07:56:48.028Z,87.36
2019-05-03T07:59:16.527Z,85.64
2019-05-03T08:01:46.633Z,85.23
2019-05-03T08:04:15.495Z,85.96
2019-05-03T08:06:44.583Z,82.31
2019-05-03T08:09:15.169Z,83.33
2019-05-03T08:11:44.406Z,82.87
2019-05-03T08:14:15.960Z,84.36
2019-05-03T08:16:45.485Z,82.95
2019-05-03T08:19:15.215Z,81.32
2019-05-03T08:21:45.288Z,79.57
2019-05-03T08:24:14.929Z,83.35
2019-05-03T08:26:45.287Z,81.38
2019-05-03T08:29:18.642Z,78.51
2019-05-03T08:31:51.295Z,77.98
2019-05-03T08:34:34.799Z,78.88
2019-05-03T08:37:05.289Z,79.81
2019-05-03T08:39:35.563Z,77.30
2019-05-03T08:42:09.326Z,75.64
2019-05-03T08:44:37.819Z,73.06
2019-05-03T08:47:06.340Z,75.14
2019-05-03T08:49:34.993Z,73.67
2019-05-03T08:52:05.522Z,76.16
2019-05-03T08:54:34.739Z,74.75
2019-05-03T08:57:05.987Z,76.17
2019-05-03T08:59:35.562Z,78.04
2019-05-03T09:02:14.014Z,78.96
2019-05-03T09:04:38.107Z,78.43
2019-05-03T09:07:05.589Z,77.52
2019-05-03T09:09:41.550Z,76.00
2019-05-03T09:12:10.053Z,76.71
2019-05-03T09:14:42.747Z,74.28
2019-05-03T09:17:08.757Z,72.21
2019-05-03T09:19:37.333Z,70.38
2019-05-03T09:22:06.304Z,69.09
2019-05-03T09:24:35.259Z,67.55
2019-05-03T09:27:05.055Z,70.00
2019-05-03T09:29:42.521Z,69.93
2019-05-03T09:32:05.168Z,71.37
2019-05-03T09:34:35.151Z,69.83
2019-05-03T09:37:04.778Z,69.52
2019-05-03T09:39:35.289Z,70.56
2019-05-03T09:42:04.700Z,69.00
2019-05-03T09:44:35.069Z,68.99
2019-05-03T09:47:05.570Z,67.69
2019-05-03T09:49:34.757Z,69.53
2019-05-03T09:52:07.930Z,66.87
2019-05-03T09:54:41.126Z,66.33
2019-05-03T09:57:09.593Z,65.96
2019-05-03T09:59:38.066Z,66.80
2019-05-03T10:02:06.638Z,65.95
2019-05-03T10:04:36.684Z,62.13
2019-05-03T10:07:05.373Z,62.24
2019-05-03T10:09:35.343Z,60.62
2019-05-03T10:12:05.793Z,61.20
2019-05-03T10:14:34.264Z,61.42
2019-05-03T10:17:10.156Z,60.10
2019-05-03T10:19:40.413Z,61.99
2019-05-03T10:22:08.937Z,56.79
2019-05-03T10:24:37.410Z,61.24
2019-05-03T10:27:05.892Z,58.03
2019-05-03T10:29:34.435Z,57.05
2019-05-03T10:32:10.629Z,58.59
2019-05-03T10:34:40.738Z,59.70
2019-05-03T10:37:10.875Z,58.97
2019-05-03T10:39:39.345Z,60.42
2019-05-03T10:42:07.836Z,57.83
2019-05-03T10:44:36.320Z,60.84
2019-05-03T10:47:05.609Z,60.74
2019-05-03T10:49:35.168Z,61.55
2019-05-03T10:52:05.708Z,62.00
2019-05-03T10:54:35.767Z,60.66
2019-05-03T10:57:06.349Z,56.21
2019-05-03T10:59:35.544Z,55.12
2019-05-03T11:02:14.889Z,56.52
2019-05-03T11:04:46.018Z,55.03
2019-05-03T11:07:14.903Z,53.58
2019-05-03T11:09:49.634Z,55.59
2019-05-03T11:12:16.199Z,55.60
2019-05-03T11:14:45.518Z,55.14
2019-05-03T11:17:14.908Z,57.27
2019-05-03T11:19:45.413Z,57.48
2019-05-03T11:22:14.604Z,56.10
2019-05-03T11:24:45.216Z,57.80
2019-05-03T11:27:15.086Z,54.86
2019-05-03T11:29:45.080Z,51.54
2019-05-03T11:32:15.266Z,49.22
2019-05-03T11:34:47.777Z,48.26
2019-05-03T11:37:20.871Z,51.06
2019-05-03T11:39:51.642Z,52.61
2019-05-03T11:42:20.142Z,48.79
2019-05-03T11:44:48.611Z,48.21
2019-05-03T11:47:17.080Z,48.58
2019-05-03T11:49:45.657Z,49.81
2019-05-03T11:52:15.920Z,49.16
2019-05-03T11:54:45.331Z,51.33
2019-05-03T11:57:15.806Z,54.09
2019-05-03T11:59:45.303Z,53.66
2019-05-03T12:02:17.936Z,51.93
2019-05-03T12:04:46.436Z,50.49
2019-05-03T12:07:18.501Z,53.78
2019-05-03T12:09:46.782Z,54.55
2019-05-03T12:12:16.899Z,55.60
2019-05-03T12:14:45.410Z,55.89
2019-05-03T12:17:20.928Z,58.35
2019-05-03T12:19:47.484Z,59.30
2019-05-03T12:22:16.665Z,58.63
2019-05-03T12:24:46.530Z,59.89
2019-05-03T12:27:15.261Z,55.60
2019-05-03T12:29:44.741Z,57.82
2019-05-03T12:32:14.742Z,56.68
2019-05-03T12:34:43.244Z,57.84
2019-05-03T12:37:11.706Z,54.42
2019-05-03T12:39:40.251Z,56.57
2019-05-03T12:42:09.455Z,56.88
2019-05-03T12:44:38.426Z,53.07
2019-05-03T12:47:06.910Z,52.59
2019-05-03T12:49:36.007Z,55.21
2019-05-03T12:52:05.339Z,52.12
2019-05-03T12:54:35.524Z,52.76
2019-05-03T12:57:05.049Z,53.01
2019-05-03T12:59:38.039Z,50.41
2019-05-03T13:02:15.526Z,50.50
2019-05-03T13:04:45.843Z,50.30
2019-05-03T13:07:15.949Z,45.71
2019-05-03T13:09:45.369Z,50.18
2019-05-03T13:12:15.631Z,52.74
2019-05-03T13:14:45.371Z,51.10
2019-05-03T13:17:15.228Z,50.54
2019-05-03T13:19:45.181Z,49.95
2019-05-03T13:22:13.934Z,41.22
2019-05-03T13:24:42.434Z,37.88
2019-05-03T13:27:10.898Z,39.87
2019-05-03T13:29:40.336Z,43.34
2019-05-03T13:32:08.823Z,45.12
2019-05-03T13:34:37.385Z,50.63
2019-05-03T13:37:05.856Z,49.36
2019-05-03T13:39:35.955Z,49.19
2019-05-03T13:42:05.677Z,48.26
2019-05-03T13:44:35.538Z,45.45
2019-05-03T13:47:04.589Z,44.74
2019-05-03T13:49:35.232Z,45.96
2019-05-03T13:52:05.089Z,47.68
2019-05-03T13:54:35.056Z,43.32
2019-05-03T13:57:04.917Z,44.37
2019-05-03T13:59:33.711Z,42.09
2019-05-03T14:02:12.547Z,44.41
2019-05-03T14:04:35.751Z,41.16
2019-05-03T14:07:04.507Z,38.72
2019-05-03T14:09:34.763Z,40.68
2019-05-03T14:12:05.587Z,38.20
2019-05-03T14:14:51.258Z,37.91
2019-05-03T14:17:19.718Z,34.20
2019-05-03T14:19:49.053Z,34.25
2019-05-03T14:22:18.014Z,36.22
2019-05-03T14:24:46.489Z,34.67
2019-05-03T14:27:17.074Z,34.42
2019-05-03T14:29:45.516Z,31.22
2019-05-03T14:32:25.379Z,31.39
2019-05-03T14:34:45.401Z,34.92
2019-05-03T14:37:13.995Z,32.56
2019-05-03T14:39:42.465Z,31.39
2019-05-03T14:42:10.965Z,31.98
2019-05-03T14:44:39.438Z,33.38
2019-05-03T14:47:07.937Z,30.57
2019-05-03T14:49:36.404Z,32.52
2019-05-03T14:52:05.553Z,29.43
2019-05-03T14:54:35.872Z,29.84
2019-05-03T14:57:21.001Z,30.60
2019-05-03T15:00:06.348Z,31.24
2019-05-03T15:02:47.630Z,35.27
2019-05-03T15:05:12.309Z,38.65
2019-05-03T15:07:40.795Z,39.36
2019-05-03T15:10:09.407Z,42.58
2019-05-03T15:12:37.906Z,42.91
2019-05-03T15:15:07.713Z,42.10
2019-05-03T15:17:36.288Z,42.70
2019-05-03T15:20:07.368Z,41.70
2019-05-03T15:22:35.953Z,38.59
2019-05-03T15:25:06.169Z,36.05
2019-05-03T15:27:35.379Z,39.05
2019-05-03T15:30:06.174Z,40.36
2019-05-03T15:32:35.359Z,40.56
2019-05-03T15:35:06.213Z,41.21
2019-05-03T15:37:35.773Z,42.56
2019-05-03T15:40:07.566Z,41.11
2019-05-03T15:42:37.533Z,41.81
2019-05-03T15:45:18.253Z,41.68
2019-05-03T15:47:57.342Z,43.96
2019-05-03T15:50:25.888Z,40.84
2019-05-03T15:52:55.049Z,41.25
2019-05-03T15:55:24.611Z,40.66
2019-05-03T15:57:55.183Z,41.45
2019-05-03T16:00:24.454Z,42.77
2019-05-03T16:02:54.726Z,43.42
2019-05-03T16:05:25.112Z,46.13
2019-05-03T16:07:55.268Z,45.00
2019-05-03T16:10:24.890Z,41.35
2019-05-03T16:12:54.557Z,42.07
2019-05-03T16:15:24.569Z,42.83
2019-05-03T16:17:54.810Z,42.22
2019-05-03T16:20:25.187Z,40.68
2019-05-03T16:22:54.410Z,38.83
2019-05-03T16:25:25.159Z,39.49
2019-05-03T16:27:55.491Z,42.60
2019-05-03T16:30:40.334Z,42.50
2019-05-03T16:33:08.834Z,46.31
2019-05-03T16:35:37.842Z,46.23
2019-05-03T16:38:06.638Z,45.31
2019-05-03T16:40:35.159Z,44.61
2019-05-03T16:43:03.656Z,44.18
2019-05-03T16:45:32.158Z,46.93
2019-05-03T16:48:00.844Z,47.09
2019-05-03T16:50:29.304Z,47.37
2019-05-03T16:52:57.804Z,47.88
2019-05-03T16:55:26.288Z,49.69
2019-05-03T16:57:54.959Z,48.83
2019-05-03T17:00:25.067Z,49.82
2019-05-03T17:02:55.097Z,48.47
2019-05-03T17:05:25.338Z,49.13
2019-05-03T17:07:55.484Z,49.25
2019-05-03T17:10:28.402Z,50.62
2019-05-03T17:12:57.089Z,51.09
2019-05-03T17:15:25.654Z,50.74
2019-05-03T17:17:54.145Z,50.41
2019-05-03T17:20:22.609Z,51.00
2019-05-03T17:22:51.093Z,50.77
2019-05-03T17:25:19.660Z,51.09
2019-05-03T17:27:48.130Z,51.14
2019-05-03T17:30:17.022Z,52.60
2019-05-03T17:32:45.894Z,53.41
2019-05-03T17:35:14.573Z,53.42
2019-05-03T17:37:45.080Z,54.16
2019-05-03T17:40:23.759Z,55.03
2019-05-03T17:42:59.612Z,56.05
2019-05-03T17:45:29.739Z,56.07
2019-05-03T17:47:58.213Z,57.52
2019-05-03T17:50:26.814Z,58.57
2019-05-03T17:53:08.789Z,58.79
2019-05-03T17:55:44.654Z,59.58
2019-05-03T17:58:17.527Z,61.49
2019-05-03T18:00:50.371Z,62.86
2019-05-03T18:03:19.408Z,65.06
2019-05-03T18:05:49.548Z,64.13
2019-05-03T18:08:31.713Z,64.23
2019-05-03T18:11:04.776Z,64.54
2019-05-03T18:13:35.257Z,65.11
2019-05-03T18:16:04.729Z,65.41
2019-05-03T18:18:35.234Z,66.53
2019-05-03T18:21:04.812Z,68.56
2019-05-03T18:23:35.021Z,68.87
2019-05-03T18:26:05.314Z,69.81
2019-05-03T18:28:35.570Z,71.40
2019-05-03T18:31:05.360Z,70.30
2019-05-03T18:33:34.408Z,69.71
2019-05-03T18:36:02.898Z,70.99
2019-05-03T18:38:33.001Z,71.76
2019-05-03T18:41:01.963Z,71.55
2019-05-03T18:43:37.790Z,70.84
2019-05-03T18:46:24.367Z,71.26
2019-05-03T18:48:52.910Z,73.13
2019-05-03T18:51:25.096Z,73.39
2019-05-03T18:53:54.436Z,74.37
2019-05-03T18:56:25.039Z,75.24
2019-05-03T18:58:54.376Z,76.11
2019-05-03T19:01:25.163Z,76.87
2019-05-03T19:03:55.515Z,76.67
2019-05-03T19:06:24.039Z,74.86
2019-05-03T19:08:54.495Z,72.84
2019-05-03T19:11:27.493Z,73.87
2019-05-03T19:14:00.699Z,70.24
2019-05-03T19:16:36.340Z,69.43
2019-05-03T19:19:04.970Z,70.08
2019-05-03T19:21:35.004Z,69.65
2019-05-03T19:24:04.841Z,70.62
2019-05-03T19:26:35.261Z,70.45
2019-05-03T19:29:04.433Z,71.28
2019-05-03T19:31:33.125Z,71.58
2019-05-03T19:34:01.588Z,72.38
2019-05-03T19:36:30.076Z,72.67
2019-05-03T19:38:58.542Z,72.98
2019-05-03T19:41:27.033Z,72.87
2019-05-03T19:43:55.504Z,73.44
2019-05-03T19:46:24.778Z,73.81
2019-05-03T19:48:54.672Z,74.78
2019-05-03T19:51:23.330Z,74.57
2019-05-03T19:53:55.111Z,75.43
2019-05-03T19:56:25.570Z,75.98
2019-05-03T19:58:55.769Z,76.59
2019-05-03T20:01:28.884Z,77.42
2019-05-03T20:04:01.684Z,77.51
2019-05-03T20:06:37.483Z,75.51
2019-05-03T20:09:21.549Z,75.63
2019-05-03T20:11:50.037Z,73.58
2019-05-03T20:14:18.496Z,72.79
2019-05-03T20:16:46.981Z,71.75
2019-05-03T20:19:20.876Z,71.15
2019-05-03T20:21:45.759Z,71.73
2019-05-03T20:24:14.944Z,70.67
2019-05-03T20:26:45.065Z,71.21
2019-05-03T20:29:14.798Z,71.28
2019-05-03T20:31:44.719Z,71.10
2019-05-03T20:34:13.223Z,70.75
2019-05-03T20:36:41.719Z,72.06
2019-05-03T20:39:10.184Z,71.56
2019-05-03T20:41:38.646Z,70.81
2019-05-03T20:44:25.236Z,70.07
2019-05-03T20:46:58.025Z,70.08
2019-05-03T20:49:26.496Z,70.75
2019-05-03T20:51:55.087Z,70.79
2019-05-03T20:54:23.574Z,71.08
2019-05-03T20:56:52.047Z,71.05
2019-05-03T20:59:20.556Z,70.48
2019-05-03T21:01:49.010Z,70.57
2019-05-03T21:04:17.569Z,70.59
2019-05-03T21:06:46.044Z,70.16
2019-05-03T21:09:14.919Z,70.77
2019-05-03T21:11:44.852Z,70.33
2019-05-03T21:14:15.619Z,70.02
2019-05-03T21:16:45.454Z,70.63
2019-05-03T21:19:18.799Z,73.58
2019-05-03T21:21:48.909Z,73.38
2019-05-03T21:24:26.202Z,73.22
2019-05-03T21:26:54.855Z,73.20
2019-05-03T21:29:23.519Z,72.46
2019-05-03T21:31:52.374Z,71.92
2019-05-03T21:34:20.862Z,73.46
2019-05-03T21:36:49.328Z,71.88
2019-05-03T21:39:17.962Z,71.46
2019-05-03T21:41:46.429Z,72.45
2019-05-03T21:44:31.005Z,73.33
2019-05-03T21:47:01.248Z,73.68
2019-05-03T21:49:46.175Z,74.27
2019-05-03T21:52:14.784Z,74.29
2019-05-03T21:54:44.966Z,74.29
2019-05-03T21:57:14.290Z,75.21
2019-05-03T21:59:44.828Z,75.49
2019-05-03T22:02:15.436Z,77.39
2019-05-03T22:04:44.465Z,77.59
2019-05-03T22:07:13.090Z,78.92
2019-05-03T22:09:41.572Z,79.48
2019-05-03T22:12:10.052Z,78.30
2019-05-03T22:14:42.941Z,77.17
2019-05-03T22:17:29.559Z,77.83
2019-05-03T22:19:59.699Z,76.38
2019-05-03T22:22:36.537Z,75.02
2019-05-03T22:25:08.480Z,75.04
2019-05-03T22:27:38.583Z,74.75
2019-05-03T22:30:07.820Z,74.34
2019-05-03T22:32:36.283Z,74.87
2019-05-03T22:35:09.374Z,72.68
2019-05-03T22:37:37.848Z,75.05
2019-05-03T22:40:06.679Z,74.89
2019-05-03T22:42:35.146Z,75.27
2019-05-03T22:45:04.752Z,75.83
2019-05-03T22:47:33.179Z,77.07
2019-05-03T22:50:01.662Z,76.04
2019-05-03T22:52:30.127Z,74.35
2019-05-03T22:54:58.637Z,72.80
2019-05-03T22:57:27.125Z,72.57
2019-05-03T22:59:55.625Z,73.05
2019-05-03T23:02:24.955Z,74.52
2019-05-03T23:04:55.389Z,74.11
2019-05-03T23:07:24.992Z,75.13
2019-05-03T23:09:53.642Z,74.88
2019-05-03T23:12:22.106Z,74.51
2019-05-03T23:14:50.576Z,74.50
2019-05-03T23:17:19.064Z,73.99
2019-05-03T23:19:49.167Z,71.10
2019-05-03T23:22:25.432Z,71.38
2019-05-03T23:24:54.834Z,71.50
2019-05-03T23:27:24.953Z,71.23
2019-05-03T23:29:54.532Z,72.94
2019-05-03T23:32:24.456Z,73.26
2019-05-03T23:34:54.415Z,73.76
2019-05-03T23:37:23.031Z,73.58
2019-05-03T23:39:51.505Z,73.86
2019-05-03T23:42:20.110Z,74.16
2019-05-03T23:44:48.582Z,74.51
2019-05-03T23:47:18.708Z,74.83
2019-05-03T23:49:47.175Z,75.23
2019-05-03T23:52:19.963Z,76.10
2019-05-03T23:54:48.426Z,76.75
2019-05-03T23:57:16.930Z,77.21
2019-05-03T23:59:45.394Z,78.56
